KMYL

Mc Call Municipal Airport

Mc Call, Idaho, USA
METAR KMYL 182051Z AUTO VRB05KT 10SM CLR 27/04 A3024 RMK AO2 SLP192 T02670039 58010
Observed Flight Rules
Aug-18 @ 20:51 UTC (an hour ago) Visual Flight Rules
Wind Visibility Clouds
Variable at 5 knots 10 miles
  • Clear skies
Temperatures Readings
Current 27°C / 81°F
Dewpoint 4°C / 39°F
Humidity 23%
Altimeter 30.24" Hg
Pressure 1019.2 hPa
Elevation 1533
METAR KMYL 182051Z AUTO VRB05KT 10SM CLR 27/04 A3024 RMK AO2 SLP192 T02670039 58010
Observed Flight Rules
Aug-18 @ 20:51 UTC
(an hour ago)
VFR
Wind Visibility
Variable at 5 knots 10 miles
Clouds
  • Clear skies
Temperature Dewpoint
27°C / 81°F 4°C / 39°F
Humidity Altimeter Pressure
23% 30.24" Hg 1019.2 hPa